MUC | München Airways

 METAR UND TAF INFORMATION

METAR FOR LHBP
ADDS - METARS form results

(0856 UTC 22 March 2019)
Data provider http://aviationweather.gov/metar/data/
 
METAR text: LHBP 220830Z VRB02KT CAVOK 12/06 Q1032 NOSIG
Conditions at: LHBP (BUDAPEST/FERIHEG, HU) observed 0830 UTC 22 March 2019
Temperature: 12.0°C (54°F)
Dewpoint: 6.0°C (43°F) [RH = 67%]
Pressure (altimeter): 30.47 inches Hg (1032.0 mb)
Winds: variable direction winds at 2 MPH (2 knots; 1.0 m/s)
Visibility: 6 or more miles (10+ km)
Ceiling: ceiling and visibility are OK
Clouds: unknown
Weather: no significant weather observed at this time

METAR text: LHBP 220800Z VRB03KT CAVOK 11/01 Q1033 NOSIG
Conditions at: LHBP (BUDAPEST/FERIHEG, HU) observed 0800 UTC 22 March 2019
Temperature: 11.0°C (52°F)
Dewpoint: 1.0°C (34°F) [RH = 50%]
Pressure (altimeter): 30.50 inches Hg (1033.0 mb)
Winds: variable direction winds at 3 MPH (3 knots; 1.5 m/s)
Visibility: 6 or more miles (10+ km)
Ceiling: ceiling and visibility are OK
Clouds: unknown
Weather: no significant weather observed at this time

Forecast for: LHBP (BUDAPEST/FERIHEG, HU)
Text: TAF LHBP 220515Z 2206/2306 VRB03KT CAVOK
Forecast period: 0600 to 1400 UTC 22 March 2019
Forecast type: FROM: standard forecast or significant change
Winds: variable direction winds at 3 MPH (3 knots; 1.5 m/s)
Visibility: 6 or more miles 10+ km)
Ceiling: unknown
Clouds: missing
Weather: NSW  (no significant weather)
Text: BECMG 2214/2216 07004KT
Forecast period: 1400 UTC 22 March 2019 to 0600 UTC 23 March 2019
Forecast type: BECOMING: Conditions expected to become as follows by 1600 UTC 22 March 2019
Winds: from the ENE (70 degrees) at 5 MPH (4 knots; 2.1 m/s)
Visibility: 6 or more miles 10+ km)
Ceiling: unknown
Clouds: missing
Weather: NSW  (no significant weather)

 FLUGHAFENKARTE

 RUNWAY INFORMATION
Runway 13R Runway length 9875 ft Runway width 149 ft
Runway elevation 450 ft Runway displaced threshold 0 ft Runway heading 132
Runway 31L Runway length 9875 ft Runway width 149 ft
Runway elevation 450 ft Runway displaced threshold 0 ft Runway heading 312
Runway 13L Runway length 12162 ft Runway width 149 ft
Runway elevation 495 ft Runway displaced threshold 0 ft Runway heading 132
Runway 31R Runway length 12162 ft Runway width 149 ft
Runway elevation 417 ft Runway displaced threshold 0 ft Runway heading 312

 AIRPORT FREQUENCIES
Type ACC Name BUDAPEST A Frequency 129.7 MHZ
Type APP Name DIRECTOR Frequency 119.5 MHZ
Type ATIS Name ATIS Frequency 132.375 MHZ
Type GND Name GND Frequency 121.9 MHZ
Type TWR Name TWR Frequency 118.1 MHZ
Type CDC Name Delivery Frequency 134.55 MHZ
Type APRS Name Apron Guid Frequency 122.45 MHZ
Type APRW Name Apron Guid Frequency 131.55 MHZ

 AIRPORT NEAR NAVIGATION AIDS
Type VOR-DME Name Budapest Frequency 117300 KHZ
Type VOR-DME Name Monor Frequency 112500 KHZ
Type NDB Name Monor Frequency 288 KHZ
Type VOR-DME Name Tapiosap Frequency 115900 KHZ
Type NDB Name Tapiosap Frequency 306 KHZ